createdAt,value
2023-05-11T00:02:16.773Z,1.80
2023-05-11T00:04:44.957Z,1.47
2023-05-11T00:07:12.942Z,1.63
2023-05-11T00:09:41.776Z,1.80
2023-05-11T00:12:09.719Z,1.50
2023-05-11T00:14:37.664Z,1.77
2023-05-11T00:17:06.062Z,1.60
2023-05-11T00:19:35.518Z,1.60
2023-05-11T00:22:03.690Z,1.90
2023-05-11T00:24:31.625Z,1.73
2023-05-11T00:26:59.593Z,1.50
2023-05-11T00:29:27.547Z,1.80
2023-05-11T00:31:55.627Z,1.70
2023-05-11T00:34:25.382Z,1.37
2023-05-11T00:36:54.675Z,2.13
2023-05-11T00:39:22.613Z,1.70
2023-05-11T00:41:50.487Z,1.73
2023-05-11T00:44:18.429Z,1.57
2023-05-11T00:46:46.381Z,1.50
2023-05-11T00:49:17.192Z,1.40
2023-05-11T00:51:45.135Z,1.40
2023-05-11T00:54:15.797Z,1.70
2023-05-11T00:56:43.698Z,1.43
2023-05-11T00:59:11.662Z,1.57
2023-05-11T01:01:39.736Z,1.63
2023-05-11T01:04:07.751Z,1.50
2023-05-11T01:06:42.601Z,1.70
2023-05-11T01:09:13.088Z,1.50
2023-05-11T01:11:44.435Z,1.50
2023-05-11T01:14:15.170Z,1.77
2023-05-11T01:16:43.529Z,1.70
2023-05-11T01:19:13.868Z,1.90
2023-05-11T01:21:41.768Z,1.50
2023-05-11T01:24:28.021Z,1.40
2023-05-11T01:27:13.666Z,1.60
2023-05-11T01:30:16.827Z,1.60
2023-05-11T01:32:46.354Z,1.80
2023-05-11T01:35:19.044Z,1.60
2023-05-11T01:37:49.080Z,1.77
2023-05-11T01:40:18.281Z,1.70
2023-05-11T01:42:47.228Z,1.63
2023-05-11T01:45:15.136Z,1.80
2023-05-11T01:47:43.413Z,1.77
2023-05-11T01:50:12.934Z,1.50
2023-05-11T01:52:40.959Z,1.80
2023-05-11T01:55:09.636Z,1.37
2023-05-11T01:57:38.171Z,1.60
2023-05-11T02:00:07.375Z,1.60
2023-05-11T02:02:35.352Z,1.43
2023-05-11T02:05:03.395Z,1.87
2023-05-11T02:07:32.831Z,1.97
2023-05-11T02:10:00.757Z,1.30
2023-05-11T02:12:28.707Z,1.47
2023-05-11T02:14:56.667Z,1.67
2023-05-11T02:17:24.638Z,1.67
2023-05-11T02:19:52.663Z,1.40
2023-05-11T02:22:20.611Z,1.70
2023-05-11T02:24:49.924Z,1.87
2023-05-11T02:27:17.895Z,1.77
2023-05-11T02:29:46.489Z,1.60
2023-05-11T02:32:16.956Z,1.43
2023-05-11T02:34:45.483Z,1.87
2023-05-11T02:37:15.361Z,1.30
2023-05-11T02:39:45.419Z,1.73
2023-05-11T02:42:16.187Z,1.50
2023-05-11T02:44:46.842Z,1.43
2023-05-11T02:47:15.051Z,1.40
2023-05-11T02:49:43.149Z,2.70
2023-05-11T02:52:11.115Z,1.97
2023-05-11T02:54:39.018Z,1.43
2023-05-11T02:57:09.656Z,1.23
2023-05-11T02:59:39.026Z,1.43
2023-05-11T03:02:12.698Z,1.50
2023-05-11T03:04:40.645Z,1.70
2023-05-11T03:07:08.519Z,1.70
2023-05-11T03:09:42.257Z,1.50
2023-05-11T03:12:10.198Z,1.50
2023-05-11T03:14:42.632Z,1.93
2023-05-11T03:17:10.581Z,1.90
2023-05-11T03:19:38.563Z,1.80
2023-05-11T03:22:06.734Z,1.50
2023-05-11T03:24:34.632Z,2.17
2023-05-11T03:27:03.741Z,1.60
2023-05-11T03:29:32.145Z,1.37
2023-05-11T03:32:01.490Z,1.50
2023-05-11T03:34:29.764Z,1.23
2023-05-11T03:36:57.719Z,1.97
2023-05-11T03:39:25.659Z,1.60
2023-05-11T03:41:53.575Z,1.57
2023-05-11T03:44:21.490Z,1.67
2023-05-11T03:46:50.495Z,1.30
2023-05-11T03:49:19.858Z,1.70
2023-05-11T03:51:47.820Z,1.90
2023-05-11T03:54:15.709Z,1.40
2023-05-11T03:56:43.615Z,1.30
2023-05-11T03:59:15.040Z,1.23
2023-05-11T04:01:43.375Z,1.60
2023-05-11T04:04:12.202Z,1.60
2023-05-11T04:06:41.682Z,1.67
2023-05-11T04:09:09.643Z,1.47
2023-05-11T04:11:38.117Z,1.77
2023-05-11T04:14:06.033Z,1.87
2023-05-11T04:16:34.010Z,1.80
2023-05-11T04:19:02.347Z,1.87
2023-05-11T04:21:30.704Z,1.57
2023-05-11T04:24:00.136Z,1.73
2023-05-11T04:26:28.053Z,2.07
2023-05-11T04:28:55.979Z,1.87
2023-05-11T04:31:23.972Z,2.30
2023-05-11T04:33:52.117Z,1.60
2023-05-11T04:36:22.294Z,1.70
2023-05-11T04:38:50.132Z,1.93
2023-05-11T04:41:22.474Z,2.17
2023-05-11T04:43:50.418Z,2.13
2023-05-11T04:46:18.845Z,1.77
2023-05-11T04:48:46.767Z,1.90
2023-05-11T04:51:14.615Z,1.80
2023-05-11T04:53:42.646Z,1.67
2023-05-11T04:56:10.800Z,2.10
2023-05-11T04:58:40.118Z,1.90
2023-05-11T05:01:08.121Z,2.40
2023-05-11T05:03:36.094Z,2.00
2023-05-11T05:06:03.988Z,1.70
2023-05-11T05:08:31.916Z,2.93
2023-05-11T05:10:59.852Z,2.00
2023-05-11T05:13:27.806Z,1.77
2023-05-11T05:15:57.097Z,1.93
2023-05-11T05:18:25.189Z,1.57
2023-05-11T05:20:53.122Z,2.17
2023-05-11T05:23:20.977Z,2.20
2023-05-11T05:25:52.058Z,2.40
2023-05-11T05:28:20.278Z,2.40
2023-05-11T05:30:48.204Z,1.90
2023-05-11T05:33:17.527Z,2.00
2023-05-11T05:35:46.824Z,2.20
2023-05-11T05:38:15.229Z,1.93
2023-05-11T05:40:43.208Z,2.03
2023-05-11T05:43:11.328Z,2.10
2023-05-11T05:45:39.259Z,2.10
2023-05-11T05:48:09.781Z,1.70
2023-05-11T05:50:39.282Z,2.33
2023-05-11T05:53:07.931Z,2.50
2023-05-11T05:55:35.987Z,2.20
2023-05-11T05:58:04.010Z,1.80
2023-05-11T06:00:31.984Z,2.30
2023-05-11T06:03:02.787Z,2.17
2023-05-11T06:05:30.881Z,1.87
2023-05-11T06:08:09.711Z,2.00
2023-05-11T06:10:39.146Z,1.60
2023-05-11T06:13:08.167Z,2.20
2023-05-11T06:15:36.217Z,2.00
2023-05-11T06:18:04.343Z,2.23
2023-05-11T06:20:32.935Z,2.10
2023-05-11T06:23:02.208Z,2.73
2023-05-11T06:25:30.148Z,1.87
2023-05-11T06:27:58.039Z,2.20
2023-05-11T06:30:26.004Z,2.00
2023-05-11T06:32:54.004Z,3.20
2023-05-11T06:35:22.674Z,2.60
2023-05-11T06:37:50.617Z,3.43
2023-05-11T06:40:20.226Z,3.10
2023-05-11T06:42:48.377Z,2.10
2023-05-11T06:45:16.583Z,2.90
2023-05-11T06:47:44.600Z,2.23
2023-05-11T06:50:12.673Z,2.57
2023-05-11T06:52:40.605Z,2.10
2023-05-11T06:55:09.431Z,2.70
2023-05-11T06:57:38.876Z,3.60
2023-05-11T07:00:08.284Z,2.47
2023-05-11T07:02:36.433Z,1.90
2023-05-11T07:05:04.720Z,2.40
2023-05-11T07:07:32.900Z,2.10
2023-05-11T07:10:01.061Z,2.07
2023-05-11T07:12:28.992Z,2.30
2023-05-11T07:14:58.372Z,2.33
2023-05-11T07:17:26.425Z,2.67
2023-05-11T07:19:57.217Z,3.00
2023-05-11T07:22:25.160Z,2.03
2023-05-11T07:24:53.171Z,2.30
2023-05-11T07:27:21.180Z,2.10
2023-05-11T07:29:49.112Z,2.23
2023-05-11T07:32:18.455Z,2.50
2023-05-11T07:34:46.368Z,2.53
2023-05-11T07:37:14.328Z,2.57
2023-05-11T07:39:42.268Z,2.30
2023-05-11T07:42:10.222Z,2.67
2023-05-11T07:44:38.178Z,1.90
2023-05-11T07:47:06.303Z,2.20
2023-05-11T07:49:43.468Z,2.33
2023-05-11T07:52:12.249Z,2.30
2023-05-11T07:54:40.962Z,2.77
2023-05-11T07:57:09.021Z,2.20
2023-05-11T07:59:37.267Z,2.20
2023-05-11T08:02:05.914Z,2.60
2023-05-11T08:04:36.216Z,2.30
2023-05-11T08:07:04.379Z,2.90
2023-05-11T08:09:32.360Z,2.50
2023-05-11T08:12:01.694Z,2.23
2023-05-11T08:14:29.710Z,2.17
2023-05-11T08:16:57.690Z,2.23
2023-05-11T08:19:25.661Z,1.73
2023-05-11T08:21:55.075Z,2.40
2023-05-11T08:24:22.992Z,2.13
2023-05-11T08:26:50.939Z,2.47
2023-05-11T08:29:18.893Z,2.40
2023-05-11T08:31:46.905Z,2.30
2023-05-11T08:34:19.576Z,2.03
2023-05-11T08:36:48.190Z,1.80
2023-05-11T08:39:28.575Z,1.80
2023-05-11T08:42:07.054Z,2.40
2023-05-11T08:44:37.789Z,2.20
2023-05-11T08:47:21.799Z,2.10
2023-05-11T08:49:53.209Z,1.90
2023-05-11T08:52:21.611Z,1.93
2023-05-11T08:54:51.095Z,2.37
2023-05-11T08:57:19.002Z,3.33
2023-05-11T08:59:47.072Z,2.00
2023-05-11T09:02:17.995Z,1.90
2023-05-11T09:04:48.225Z,2.03
2023-05-11T09:07:17.661Z,1.90
2023-05-11T09:09:46.301Z,2.30
2023-05-11T09:12:15.641Z,2.33
2023-05-11T09:14:43.854Z,2.40
2023-05-11T09:17:12.137Z,2.00
2023-05-11T09:19:44.775Z,1.87
2023-05-11T09:22:12.726Z,2.17
2023-05-11T09:24:43.647Z,2.40
2023-05-11T09:27:11.677Z,2.03
2023-05-11T09:29:41.053Z,1.97
2023-05-11T09:32:09.062Z,2.33
2023-05-11T09:34:43.105Z,2.10
2023-05-11T09:37:17.632Z,2.07
2023-05-11T09:40:13.996Z,1.87
2023-05-11T09:42:33.490Z,2.07
2023-05-11T09:45:02.817Z,2.00
2023-05-11T09:47:33.184Z,2.10
2023-05-11T09:50:01.374Z,3.90
2023-05-11T09:52:29.394Z,3.77
2023-05-11T09:54:57.354Z,2.80
2023-05-11T09:57:26.321Z,3.53
2023-05-11T09:59:54.483Z,2.37
2023-05-11T10:02:24.976Z,3.10
2023-05-11T10:04:54.297Z,3.40
2023-05-11T10:07:29.123Z,3.50
2023-05-11T10:09:57.938Z,3.93
2023-05-11T10:12:27.328Z,3.90
2023-05-11T10:14:56.784Z,3.90
2023-05-11T10:17:26.251Z,4.80
2023-05-11T10:19:55.772Z,3.90
2023-05-11T10:22:23.866Z,3.57
2023-05-11T10:24:51.875Z,4.10
2023-05-11T10:27:19.971Z,3.33
2023-05-11T10:29:48.117Z,4.00
2023-05-11T10:32:16.874Z,3.50
2023-05-11T10:34:46.594Z,3.73
2023-05-11T10:37:14.688Z,4.43
2023-05-11T10:39:42.720Z,3.27
2023-05-11T10:42:19.939Z,4.20
2023-05-11T10:45:01.519Z,3.80
2023-05-11T10:47:55.390Z,4.40
2023-05-11T10:50:53.328Z,3.47
2023-05-11T10:53:46.371Z,4.83
2023-05-11T10:56:27.905Z,4.60
2023-05-11T10:59:07.596Z,3.23
2023-05-11T11:01:39.532Z,4.20
2023-05-11T11:04:08.375Z,3.70
2023-05-11T11:06:38.886Z,3.47
2023-05-11T11:09:08.052Z,3.70
2023-05-11T11:11:39.099Z,4.13
2023-05-11T11:14:09.463Z,3.77
2023-05-11T11:16:37.679Z,3.70
2023-05-11T11:19:36.638Z,3.50
2023-05-11T11:22:06.344Z,4.10
2023-05-11T11:24:45.920Z,3.70
2023-05-11T11:27:13.853Z,3.97
2023-05-11T11:29:41.947Z,3.47
2023-05-11T11:32:28.735Z,4.00
2023-05-11T11:34:56.765Z,3.50
2023-05-11T11:37:26.068Z,3.43
2023-05-11T11:40:14.036Z,3.40
2023-05-11T11:42:44.254Z,3.87
2023-05-11T11:45:32.642Z,3.30
2023-05-11T11:48:11.388Z,3.03
2023-05-11T11:50:39.995Z,3.80
2023-05-11T11:53:12.894Z,4.40
2023-05-11T11:55:50.243Z,3.70
2023-05-11T11:58:55.778Z,3.60
2023-05-11T12:01:25.901Z,3.53
2023-05-11T12:04:42.044Z,3.77
2023-05-11T12:07:11.569Z,3.50
2023-05-11T12:09:43.829Z,2.87
2023-05-11T12:12:12.580Z,3.50
2023-05-11T12:14:42.041Z,3.40
2023-05-11T12:17:15.397Z,3.67
2023-05-11T12:19:46.611Z,3.23
2023-05-11T12:22:16.519Z,3.03
2023-05-11T12:24:45.879Z,3.40
2023-05-11T12:27:14.306Z,3.20
2023-05-11T12:29:42.526Z,3.30
2023-05-11T12:32:13.698Z,3.63
2023-05-11T12:34:41.895Z,2.83
2023-05-11T12:37:09.850Z,2.47
2023-05-11T12:39:37.778Z,3.17
2023-05-11T12:42:07.665Z,2.97
2023-05-11T12:44:35.660Z,3.10
2023-05-11T12:47:03.728Z,2.80
2023-05-11T12:49:31.664Z,3.53
2023-05-11T12:52:06.137Z,3.40
2023-05-11T12:54:34.698Z,3.17
2023-05-11T12:57:03.255Z,3.17
2023-05-11T12:59:34.389Z,3.33
2023-05-11T13:02:13.052Z,4.20
2023-05-11T13:04:42.514Z,4.77
2023-05-11T13:07:10.510Z,4.53
2023-05-11T13:09:38.514Z,3.63
2023-05-11T13:12:14.779Z,2.77
2023-05-11T13:14:44.377Z,3.67
2023-05-11T13:17:12.339Z,3.90
2023-05-11T13:19:40.821Z,4.03
2023-05-11T13:22:09.137Z,3.20
2023-05-11T13:24:37.296Z,3.53
2023-05-11T13:27:05.697Z,3.37
2023-05-11T13:29:34.058Z,3.97
2023-05-11T13:32:03.655Z,3.13
2023-05-11T13:34:31.655Z,3.93
2023-05-11T13:36:59.786Z,3.10
2023-05-11T13:39:27.745Z,3.53
2023-05-11T13:41:56.189Z,3.17
2023-05-11T13:44:24.261Z,3.20
2023-05-11T13:46:52.230Z,2.73
2023-05-11T13:49:21.793Z,3.10
2023-05-11T13:51:49.806Z,2.67
2023-05-11T13:54:17.732Z,2.70
2023-05-11T13:56:45.746Z,3.20
2023-05-11T13:59:13.767Z,3.20
2023-05-11T14:01:41.985Z,3.13
2023-05-11T14:04:09.984Z,3.70
2023-05-11T14:06:39.272Z,3.00
2023-05-11T14:09:07.221Z,3.33
2023-05-11T14:11:36.391Z,3.20
2023-05-11T14:14:06.096Z,2.67
2023-05-11T14:16:34.074Z,3.10
2023-05-11T14:19:02.088Z,3.43
2023-05-11T14:21:30.126Z,3.00
2023-05-11T14:24:10.853Z,2.97
2023-05-11T14:26:40.490Z,2.73
2023-05-11T14:29:08.515Z,3.00
2023-05-11T14:31:37.088Z,2.70
2023-05-11T14:34:05.259Z,3.27
2023-05-11T14:36:33.470Z,3.00
2023-05-11T14:39:02.794Z,3.63
2023-05-11T14:41:31.380Z,2.80
2023-05-11T14:43:59.325Z,2.97
2023-05-11T14:46:27.457Z,2.90
2023-05-11T14:48:55.481Z,3.00
2023-05-11T14:51:23.436Z,3.37
2023-05-11T14:53:51.858Z,3.50
2023-05-11T14:56:22.113Z,2.50
2023-05-11T14:58:50.215Z,2.63
2023-05-11T15:01:18.290Z,3.10
2023-05-11T15:03:46.384Z,2.50
2023-05-11T15:06:21.019Z,3.00
2023-05-11T15:08:49.247Z,3.83
2023-05-11T15:11:17.239Z,2.53
2023-05-11T15:13:48.432Z,3.20
2023-05-11T15:16:16.505Z,2.60
2023-05-11T15:18:44.575Z,2.87
2023-05-11T15:21:12.530Z,2.70
2023-05-11T15:23:40.823Z,2.70
2023-05-11T15:26:08.794Z,2.80
2023-05-11T15:28:36.723Z,2.90
2023-05-11T15:31:06.159Z,2.37
2023-05-11T15:33:34.307Z,2.60
2023-05-11T15:36:02.286Z,2.50
2023-05-11T15:38:30.411Z,2.43
2023-05-11T15:40:58.354Z,3.90
2023-05-11T15:43:26.312Z,2.60
2023-05-11T15:45:55.385Z,3.10
2023-05-11T15:48:24.730Z,2.87
2023-05-11T15:50:52.776Z,2.47
2023-05-11T15:53:20.755Z,3.27
2023-05-11T15:55:50.915Z,2.67
2023-05-11T15:58:19.008Z,2.83
2023-05-11T16:00:46.973Z,2.20
2023-05-11T16:03:15.072Z,2.10
2023-05-11T16:05:44.697Z,2.43
2023-05-11T16:08:12.699Z,2.53
2023-05-11T16:10:40.650Z,1.90
2023-05-11T16:13:09.145Z,2.30
2023-05-11T16:15:37.059Z,2.47
2023-05-11T16:18:05.597Z,2.17
2023-05-11T16:20:33.612Z,3.10
2023-05-11T16:23:03.007Z,2.70
2023-05-11T16:25:30.999Z,2.83
2023-05-11T16:27:58.937Z,2.50
2023-05-11T16:30:27.316Z,2.67
2023-05-11T16:32:55.492Z,2.60
2023-05-11T16:35:23.507Z,2.47
2023-05-11T16:37:51.462Z,2.80
2023-05-11T16:40:21.242Z,2.50
2023-05-11T16:42:49.552Z,2.20
2023-05-11T16:45:17.702Z,2.40
2023-05-11T16:47:46.332Z,2.50
2023-05-11T16:50:16.257Z,2.40
2023-05-11T16:52:44.715Z,2.00
2023-05-11T16:55:12.696Z,2.50
2023-05-11T16:57:42.041Z,2.13
2023-05-11T17:00:10.760Z,3.20
2023-05-11T17:02:38.752Z,3.60
2023-05-11T17:05:08.138Z,2.90
2023-05-11T17:07:36.159Z,2.27
2023-05-11T17:10:04.249Z,3.50
2023-05-11T17:12:35.724Z,2.60
2023-05-11T17:15:09.601Z,2.90
2023-05-11T17:17:38.288Z,3.00
2023-05-11T17:20:07.806Z,3.60
2023-05-11T17:22:35.850Z,3.60
2023-05-11T17:25:04.053Z,3.43
2023-05-11T17:27:32.130Z,2.53
2023-05-11T17:30:00.158Z,2.67
2023-05-11T17:32:29.700Z,2.53
2023-05-11T17:34:57.827Z,3.33
2023-05-11T17:37:31.834Z,2.50
2023-05-11T17:40:01.170Z,2.90
2023-05-11T17:42:29.453Z,2.70
2023-05-11T17:44:57.456Z,3.30
2023-05-11T17:47:26.153Z,3.47
2023-05-11T17:49:55.837Z,2.10
2023-05-11T17:52:24.586Z,2.57
2023-05-11T17:54:52.569Z,2.73
2023-05-11T17:57:20.629Z,3.20
2023-05-11T17:59:48.625Z,2.50
2023-05-11T18:02:17.219Z,2.33
2023-05-11T18:04:45.277Z,2.90
2023-05-11T18:07:14.660Z,3.10
2023-05-11T18:09:42.729Z,2.63
2023-05-11T18:12:11.794Z,3.00
2023-05-11T18:14:39.770Z,2.40
2023-05-11T18:17:07.720Z,2.50
2023-05-11T18:19:35.731Z,2.67
2023-05-11T18:22:04.415Z,3.00
2023-05-11T18:24:33.736Z,2.63
2023-05-11T18:27:05.189Z,3.10
2023-05-11T18:29:33.372Z,2.73
2023-05-11T18:32:01.398Z,2.03
2023-05-11T18:34:29.389Z,2.60
2023-05-11T18:36:57.406Z,2.83
2023-05-11T18:39:25.337Z,2.40
2023-05-11T18:41:54.774Z,2.57
2023-05-11T18:44:22.790Z,2.70
2023-05-11T18:46:50.934Z,2.77
2023-05-11T18:49:19.015Z,2.60
2023-05-11T18:51:47.373Z,2.67
2023-05-11T18:54:15.326Z,2.63
2023-05-11T18:56:43.291Z,2.27
2023-05-11T18:59:12.629Z,2.77
2023-05-11T19:04:16.464Z,2.50
2023-05-11T19:06:44.387Z,2.60
2023-05-11T19:09:14.343Z,2.60
2023-05-11T19:11:43.040Z,2.27
2023-05-11T19:14:14.698Z,2.20
2023-05-11T19:16:42.822Z,2.83
2023-05-11T19:19:13.887Z,2.40
2023-05-11T19:21:43.348Z,2.10
2023-05-11T19:24:11.398Z,2.57
2023-05-11T19:26:39.364Z,2.30
2023-05-11T19:29:08.162Z,2.47
2023-05-11T19:31:37.569Z,2.10
2023-05-11T19:34:07.243Z,2.87
2023-05-11T19:36:35.368Z,2.93
2023-05-11T19:39:04.524Z,2.13
2023-05-11T19:41:33.242Z,2.40
2023-05-11T19:44:01.769Z,2.50
2023-05-11T19:46:29.955Z,2.40
2023-05-11T19:48:59.392Z,2.50
2023-05-11T19:51:30.206Z,2.60
2023-05-11T19:53:58.123Z,2.47
2023-05-11T19:56:29.412Z,1.83
2023-05-11T19:58:57.468Z,2.37
2023-05-11T20:01:25.473Z,2.17
2023-05-11T20:03:53.638Z,2.73
2023-05-11T20:06:23.376Z,2.20
2023-05-11T20:08:54.337Z,2.30
2023-05-11T20:11:22.606Z,2.47
2023-05-11T20:13:51.139Z,2.30
2023-05-11T20:16:19.220Z,2.70
2023-05-11T20:18:47.430Z,2.17
2023-05-11T20:21:15.750Z,1.83
2023-05-11T20:23:45.285Z,2.60
2023-05-11T20:26:13.670Z,2.73
2023-05-11T20:28:41.689Z,2.50
2023-05-11T20:31:11.072Z,2.00
2023-05-11T20:36:10.654Z,1.80
2023-05-11T20:38:38.618Z,1.93
2023-05-11T20:41:08.546Z,2.60
2023-05-11T20:43:36.592Z,1.90
2023-05-11T20:46:04.917Z,2.87
2023-05-11T20:48:40.401Z,2.10
2023-05-11T20:51:09.352Z,2.30
2023-05-11T20:53:37.343Z,2.40
2023-05-11T20:56:05.382Z,2.27
2023-05-11T20:58:34.793Z,2.70
2023-05-11T21:01:02.758Z,3.13
2023-05-11T21:03:30.877Z,2.30
2023-05-11T21:05:58.948Z,2.10
2023-05-11T21:08:26.989Z,2.03
2023-05-11T21:10:54.959Z,2.37
2023-05-11T21:13:22.976Z,2.00
2023-05-11T21:15:52.288Z,2.10
2023-05-11T21:18:20.310Z,1.97
2023-05-11T21:20:48.312Z,2.20
2023-05-11T21:23:16.279Z,2.50
2023-05-11T21:25:44.245Z,2.70
2023-05-11T21:28:12.235Z,2.30
2023-05-11T21:30:40.234Z,1.80
2023-05-11T21:33:09.707Z,2.03
2023-05-11T21:35:37.646Z,2.30
2023-05-11T21:38:05.631Z,2.00
2023-05-11T21:40:33.549Z,2.57
2023-05-11T21:43:01.476Z,2.30
2023-05-11T21:45:29.873Z,2.50
2023-05-11T21:48:01.139Z,2.43
2023-05-11T21:50:30.871Z,2.10
2023-05-11T21:52:59.168Z,1.90
2023-05-11T21:55:27.123Z,2.57
2023-05-11T21:57:55.072Z,2.10
2023-05-11T22:00:23.740Z,2.03
2023-05-11T22:02:51.888Z,2.80
2023-05-11T22:05:20.085Z,2.40
2023-05-11T22:07:49.439Z,2.00
2023-05-11T22:10:18.820Z,2.03
2023-05-11T22:12:47.088Z,1.90
2023-05-11T22:15:15.004Z,1.93
2023-05-11T22:17:42.997Z,2.30
2023-05-11T22:20:11.372Z,2.73
2023-05-11T22:22:39.723Z,2.03
2023-05-11T22:25:10.124Z,2.07
2023-05-11T22:27:38.147Z,1.90
2023-05-11T22:30:07.524Z,1.90
2023-05-11T22:32:36.097Z,2.13
2023-05-11T22:35:04.141Z,2.50
2023-05-11T22:37:32.721Z,1.90
2023-05-11T22:40:01.151Z,1.90
2023-05-11T22:42:32.848Z,2.10
2023-05-11T22:45:00.784Z,1.80
2023-05-11T22:47:28.784Z,2.23
2023-05-11T22:49:56.907Z,1.93
2023-05-11T22:52:24.823Z,2.10
2023-05-11T22:54:54.660Z,1.97
2023-05-11T22:57:24.145Z,1.97
2023-05-11T22:59:53.565Z,1.77
2023-05-11T23:02:23.076Z,2.20
2023-05-11T23:04:52.006Z,1.83
2023-05-11T23:07:20.020Z,2.03
2023-05-11T23:09:49.786Z,1.70
2023-05-11T23:12:18.327Z,2.37
2023-05-11T23:14:46.230Z,1.80
2023-05-11T23:17:15.675Z,2.20
2023-05-11T23:19:43.748Z,2.40
2023-05-11T23:22:11.674Z,2.40
2023-05-11T23:24:39.592Z,1.73
2023-05-11T23:27:07.572Z,2.30
2023-05-11T23:29:35.830Z,1.93
2023-05-11T23:32:04.317Z,1.70
2023-05-11T23:34:33.778Z,1.83
2023-05-11T23:37:01.819Z,2.10
2023-05-11T23:39:29.800Z,2.10
2023-05-11T23:41:57.721Z,2.07
2023-05-11T23:44:25.883Z,1.60
2023-05-11T23:46:53.939Z,1.77
2023-05-11T23:49:22.526Z,1.80
2023-05-11T23:51:52.515Z,1.90
2023-05-11T23:54:20.524Z,2.20
2023-05-11T23:56:48.460Z,1.90
2023-05-11T23:59:16.433Z,1.90
